sensor_id;sensor_type;location;lat;lon;timestamp;pressure;altitude;pressure_sealevel;temperature;humidity
60489;BME280;46331;49.252;8.904;2023-03-26T00:00:23;99242.72;;;7.87;93.11
60489;BME280;46331;49.252;8.904;2023-03-26T00:01:05;99244.31;;;7.88;93.99
60489;BME280;46331;49.252;8.904;2023-03-26T00:01:47;99243.28;;;7.90;93.87
60489;BME280;46331;49.252;8.904;2023-03-26T00:02:29;99240.06;;;7.87;93.87
60489;BME280;46331;49.252;8.904;2023-03-26T00:03:10;99236.75;;;7.80;94.07
60489;BME280;46331;49.252;8.904;2023-03-26T00:03:52;99237.19;;;7.89;94.15
60489;BME280;46331;49.252;8.904;2023-03-26T00:04:34;99238.34;;;7.93;93.53
60489;BME280;46331;49.252;8.904;2023-03-26T00:05:14;99237.44;;;7.87;93.50
60489;BME280;46331;49.252;8.904;2023-03-26T00:06:43;99234.44;;;7.96;93.18
60489;BME280;46331;49.252;8.904;2023-03-26T00:07:23;99236.50;;;7.94;92.75
60489;BME280;46331;49.252;8.904;2023-03-26T00:08:05;99237.53;;;7.93;92.85
60489;BME280;46331;49.252;8.904;2023-03-26T00:08:50;99240.53;;;7.96;92.37
60489;BME280;46331;49.252;8.904;2023-03-26T00:09:30;99235.59;;;7.88;92.95
60489;BME280;46331;49.252;8.904;2023-03-26T00:10:11;99239.63;;;7.91;93.18
60489;BME280;46331;49.252;8.904;2023-03-26T00:10:51;99240.53;;;7.84;92.96
60489;BME280;46331;49.252;8.904;2023-03-26T00:11:32;99238.00;;;7.90;92.92
60489;BME280;46331;49.252;8.904;2023-03-26T00:12:13;99236.38;;;7.88;92.95
60489;BME280;46331;49.252;8.904;2023-03-26T00:12:54;99242.81;;;7.93;92.73
60489;BME280;46331;49.252;8.904;2023-03-26T00:13:35;99236.97;;;7.91;92.90
60489;BME280;46331;49.252;8.904;2023-03-26T00:14:15;99242.13;;;7.85;92.84
60489;BME280;46331;49.252;8.904;2023-03-26T00:14:57;99240.75;;;7.83;92.86
60489;BME280;46331;49.252;8.904;2023-03-26T00:15:37;99234.44;;;7.84;93.24
60489;BME280;46331;49.252;8.904;2023-03-26T00:16:19;99231.34;;;7.87;93.75
60489;BME280;46331;49.252;8.904;2023-03-26T00:16:59;99229.28;;;7.89;93.20
60489;BME280;46331;49.252;8.904;2023-03-26T00:17:40;99234.34;;;7.91;93.21
60489;BME280;46331;49.252;8.904;2023-03-26T00:18:21;99231.34;;;7.87;92.90
60489;BME280;46331;49.252;8.904;2023-03-26T00:19:04;99236.59;;;7.87;93.04
60489;BME280;46331;49.252;8.904;2023-03-26T00:19:44;99236.28;;;7.83;92.96
60489;BME280;46331;49.252;8.904;2023-03-26T00:20:26;99237.44;;;7.76;93.24
60489;BME280;46331;49.252;8.904;2023-03-26T00:21:11;99237.66;;;7.74;93.34
60489;BME280;46331;49.252;8.904;2023-03-26T00:21:51;99233.53;;;7.66;94.11
60489;BME280;46331;49.252;8.904;2023-03-26T00:22:32;99236.88;;;7.62;94.32
60489;BME280;46331;49.252;8.904;2023-03-26T00:23:13;99237.88;;;7.61;94.18
60489;BME280;46331;49.252;8.904;2023-03-26T00:23:55;99234.56;;;7.65;94.19
60489;BME280;46331;49.252;8.904;2023-03-26T00:24:38;99236.88;;;7.62;94.53
60489;BME280;46331;49.252;8.904;2023-03-26T00:25:21;99232.38;;;7.62;94.39
60489;BME280;46331;49.252;8.904;2023-03-26T00:26:04;99237.66;;;7.62;94.31
60489;BME280;46331;49.252;8.904;2023-03-26T00:26:49;99234.13;;;7.57;94.14
60489;BME280;46331;49.252;8.904;2023-03-26T00:27:33;99240.28;;;7.62;94.38
60489;BME280;46331;49.252;8.904;2023-03-26T00:28:13;99235.25;;;7.61;94.30
60489;BME280;46331;49.252;8.904;2023-03-26T00:28:57;99237.66;;;7.62;94.27
60489;BME280;46331;49.252;8.904;2023-03-26T00:29:39;99235.25;;;7.61;94.52
60489;BME280;46331;49.252;8.904;2023-03-26T00:30:19;99236.75;;;7.57;94.76
60489;BME280;46331;49.252;8.904;2023-03-26T00:31:02;99232.97;;;7.52;95.08
60489;BME280;46331;49.252;8.904;2023-03-26T00:31:43;99235.81;;;7.51;94.87
60489;BME280;46331;49.252;8.904;2023-03-26T00:32:28;99238.00;;;7.42;95.25
60489;BME280;46331;49.252;8.904;2023-03-26T00:33:09;99236.84;;;7.38;95.64
60489;BME280;46331;49.252;8.904;2023-03-26T00:33:51;99238.59;;;7.44;95.59
60489;BME280;46331;49.252;8.904;2023-03-26T00:34:34;99244.88;;;7.43;95.21
60489;BME280;46331;49.252;8.904;2023-03-26T00:35:15;99240.63;;;7.42;95.51
60489;BME280;46331;49.252;8.904;2023-03-26T00:35:58;99241.44;;;7.43;95.27
60489;BME280;46331;49.252;8.904;2023-03-26T00:36:40;99244.31;;;7.41;95.81
60489;BME280;46331;49.252;8.904;2023-03-26T00:37:22;99240.06;;;7.40;95.77
60489;BME280;46331;49.252;8.904;2023-03-26T00:38:06;99247.41;;;7.38;96.20
60489;BME280;46331;49.252;8.904;2023-03-26T00:38:47;99244.19;;;7.36;95.81
60489;BME280;46331;49.252;8.904;2023-03-26T00:39:28;99243.38;;;7.36;96.01
60489;BME280;46331;49.252;8.904;2023-03-26T00:40:10;99239.34;;;7.33;96.25
60489;BME280;46331;49.252;8.904;2023-03-26T00:40:51;99247.72;;;7.30;96.92
60489;BME280;46331;49.252;8.904;2023-03-26T00:41:32;99243.50;;;7.29;96.53
60489;BME280;46331;49.252;8.904;2023-03-26T00:42:16;99242.69;;;7.28;96.83
60489;BME280;46331;49.252;8.904;2023-03-26T00:42:56;99242.91;;;7.27;96.67
60489;BME280;46331;49.252;8.904;2023-03-26T00:43:39;99241.31;;;7.26;96.89
60489;BME280;46331;49.252;8.904;2023-03-26T00:44:20;99237.84;;;7.25;96.61
60489;BME280;46331;49.252;8.904;2023-03-26T00:45:06;99247.63;;;7.25;96.63
60489;BME280;46331;49.252;8.904;2023-03-26T00:45:48;99240.16;;;7.22;96.85
60489;BME280;46331;49.252;8.904;2023-03-26T00:46:30;99244.84;;;7.20;97.40
60489;BME280;46331;49.252;8.904;2023-03-26T00:47:11;99241.41;;;7.19;97.19
60489;BME280;46331;49.252;8.904;2023-03-26T00:47:52;99239.00;;;7.18;97.62
60489;BME280;46331;49.252;8.904;2023-03-26T00:48:33;99235.22;;;7.13;97.55
60489;BME280;46331;49.252;8.904;2023-03-26T00:49:13;99236.47;;;7.11;97.66
60489;BME280;46331;49.252;8.904;2023-03-26T00:49:54;99238.31;;;7.10;97.62
60489;BME280;46331;49.252;8.904;2023-03-26T00:50:35;99240.72;;;7.12;97.73
60489;BME280;46331;49.252;8.904;2023-03-26T00:51:17;99244.38;;;7.11;98.11
60489;BME280;46331;49.252;8.904;2023-03-26T00:51:57;99231.41;;;7.09;98.27
60489;BME280;46331;49.252;8.904;2023-03-26T00:52:38;99235.53;;;7.05;98.05
60489;BME280;46331;49.252;8.904;2023-03-26T00:53:18;99228.44;;;7.06;98.53
60489;BME280;46331;49.252;8.904;2023-03-26T00:54:00;99230.84;;;7.07;98.56
60489;BME280;46331;49.252;8.904;2023-03-26T00:54:40;99237.38;;;7.05;98.51
60489;BME280;46331;49.252;8.904;2023-03-26T00:55:22;99239.22;;;7.04;98.63
60489;BME280;46331;49.252;8.904;2023-03-26T00:56:04;99233.47;;;7.07;98.51
60489;BME280;46331;49.252;8.904;2023-03-26T00:56:44;99229.22;;;7.06;98.39
60489;BME280;46331;49.252;8.904;2023-03-26T00:57:25;99223.63;;;7.03;98.80
60489;BME280;46331;49.252;8.904;2023-03-26T00:58:09;99223.03;;;7.01;98.49
60489;BME280;46331;49.252;8.904;2023-03-26T00:58:50;99219.81;;;6.98;98.57
60489;BME280;46331;49.252;8.904;2023-03-26T00:59:31;99216.94;;;7.00;98.22
60489;BME280;46331;49.252;8.904;2023-03-26T01:00:17;99221.22;;;7.01;98.78
60489;BME280;46331;49.252;8.904;2023-03-26T01:01:18;99219.38;;;7.02;98.77
60489;BME280;46331;49.252;8.904;2023-03-26T01:02:01;99211.00;;;7.05;98.88
60489;BME280;46331;49.252;8.904;2023-03-26T01:02:42;99217.53;;;7.02;98.79
60489;BME280;46331;49.252;8.904;2023-03-26T01:03:28;99217.06;;;7.05;98.74
60489;BME280;46331;49.252;8.904;2023-03-26T01:04:28;99217.66;;;7.07;98.99
60489;BME280;46331;49.252;8.904;2023-03-26T01:06:21;99209.16;;;7.05;98.68
60489;BME280;46331;49.252;8.904;2023-03-26T01:07:12;99213.41;;;7.06;98.66
60489;BME280;46331;49.252;8.904;2023-03-26T01:07:53;99209.16;;;7.05;98.98
60489;BME280;46331;49.252;8.904;2023-03-26T01:08:40;99211.78;;;7.05;98.83
60489;BME280;46331;49.252;8.904;2023-03-26T01:09:28;99215.25;;;7.06;98.88
60489;BME280;46331;49.252;8.904;2023-03-26T01:10:10;99205.38;;;7.01;98.91
60489;BME280;46331;49.252;8.904;2023-03-26T01:10:55;99207.19;;;7.01;98.65
60489;BME280;46331;49.252;8.904;2023-03-26T01:11:43;99204.78;;;6.99;99.26
60489;BME280;46331;49.252;8.904;2023-03-26T01:12:28;99198.72;;;6.98;99.12
60489;BME280;46331;49.252;8.904;2023-03-26T01:13:13;99202.38;;;6.97;98.95
60489;BME280;46331;49.252;8.904;2023-03-26T01:13:56;99200.56;;;6.98;98.95
60489;BME280;46331;49.252;8.904;2023-03-26T01:14:38;99199.97;;;6.96;98.25
60489;BME280;46331;49.252;8.904;2023-03-26T01:15:19;99201.03;;;6.95;98.59
60489;BME280;46331;49.252;8.904;2023-03-26T01:16:00;99197.78;;;6.93;98.23
60489;BME280;46331;49.252;8.904;2023-03-26T01:16:46;99197.22;;;6.91;98.40
60489;BME280;46331;49.252;8.904;2023-03-26T01:17:29;99197.44;;;6.89;99.35
60489;BME280;46331;49.252;8.904;2023-03-26T01:18:13;99198.69;;;6.87;99.17
60489;BME280;46331;49.252;8.904;2023-03-26T01:18:54;99183.09;;;6.85;99.28
60489;BME280;46331;49.252;8.904;2023-03-26T01:20:25;99186.19;;;6.82;99.01
60489;BME280;46331;49.252;8.904;2023-03-26T01:21:09;99182.97;;;6.80;98.98
60489;BME280;46331;49.252;8.904;2023-03-26T01:21:54;99181.59;;;6.77;99.39
60489;BME280;46331;49.252;8.904;2023-03-26T01:22:35;99185.06;;;6.78;100.00
60489;BME280;46331;49.252;8.904;2023-03-26T01:23:22;99177.38;;;6.76;99.92
60489;BME280;46331;49.252;8.904;2023-03-26T01:24:06;99182.63;;;6.76;99.75
60489;BME280;46331;49.252;8.904;2023-03-26T01:24:47;99182.03;;;6.74;99.56
60489;BME280;46331;49.252;8.904;2023-03-26T01:25:37;99183.66;;;6.75;99.39
60489;BME280;46331;49.252;8.904;2023-03-26T01:27:23;99184.09;;;6.72;100.00
60489;BME280;46331;49.252;8.904;2023-03-26T01:28:08;99184.56;;;6.69;99.88
60489;BME280;46331;49.252;8.904;2023-03-26T01:28:54;99186.75;;;6.72;99.39
60489;BME280;46331;49.252;8.904;2023-03-26T01:31:16;99174.81;;;6.70;99.14
60489;BME280;46331;49.252;8.904;2023-03-26T01:32:58;99174.13;;;6.62;99.34
60489;BME280;46331;49.252;8.904;2023-03-26T01:33:48;99175.38;;;6.60;99.91
60489;BME280;46331;49.252;8.904;2023-03-26T01:36:48;99164.78;;;6.48;99.15
60489;BME280;46331;49.252;8.904;2023-03-26T01:39:54;99166.22;;;6.32;100.00
60489;BME280;46331;49.252;8.904;2023-03-26T01:40:56;99158.75;;;6.29;100.00
60489;BME280;46331;49.252;8.904;2023-03-26T01:41:50;99157.38;;;6.26;100.00
60489;BME280;46331;49.252;8.904;2023-03-26T01:44:30;99146.38;;;6.30;100.00
60489;BME280;46331;49.252;8.904;2023-03-26T01:45:20;99154.06;;;6.31;100.00
60489;BME280;46331;49.252;8.904;2023-03-26T01:46:05;99161.41;;;6.29;100.00
60489;BME280;46331;49.252;8.904;2023-03-26T01:46:47;99160.59;;;6.29;100.00
60489;BME280;46331;49.252;8.904;2023-03-26T01:47:29;99157.38;;;6.26;100.00
60489;BME280;46331;49.252;8.904;2023-03-26T01:48:11;99145.47;;;6.24;100.00
60489;BME280;46331;49.252;8.904;2023-03-26T01:48:52;99148.47;;;6.28;100.00
60489;BME280;46331;49.252;8.904;2023-03-26T01:49:32;99147.66;;;6.27;100.00
60489;BME280;46331;49.252;8.904;2023-03-26T01:50:13;99151.53;;;6.24;100.00
60489;BME280;46331;49.252;8.904;2023-03-26T01:50:56;99142.63;;;6.25;100.00
60489;BME280;46331;49.252;8.904;2023-03-26T01:51:40;99142.84;;;6.24;100.00
60489;BME280;46331;49.252;8.904;2023-03-26T01:52:22;99142.84;;;6.24;100.00
60489;BME280;46331;49.252;8.904;2023-03-26T01:53:07;99149.03;;;6.30;100.00
60489;BME280;46331;49.252;8.904;2023-03-26T01:53:48;99138.03;;;6.33;100.00
60489;BME280;46331;49.252;8.904;2023-03-26T01:54:30;99144.72;;;6.35;100.00
60489;BME280;46331;49.252;8.904;2023-03-26T01:55:11;99143.09;;;6.34;100.00
60489;BME280;46331;49.252;8.904;2023-03-26T01:58:35;99136.00;;;6.35;100.00
60489;BME280;46331;49.252;8.904;2023-03-26T02:03:52;99127.13;;;6.48;100.00
60489;BME280;46331;49.252;8.904;2023-03-26T02:05:33;99122.56;;;6.55;100.00
60489;BME280;46331;49.252;8.904;2023-03-26T02:06:32;99125.75;;;6.57;99.74
60489;BME280;46331;49.252;8.904;2023-03-26T02:07:34;99123.00;;;6.52;99.92
60489;BME280;46331;49.252;8.904;2023-03-26T02:09:13;99127.28;;;6.65;100.00
60489;BME280;46331;49.252;8.904;2023-03-26T02:10:03;99125.44;;;6.65;100.00
60489;BME280;46331;49.252;8.904;2023-03-26T02:10:49;99122.78;;;6.65;100.00
60489;BME280;46331;49.252;8.904;2023-03-26T02:11:31;99132.75;;;6.63;99.56
60489;BME280;46331;49.252;8.904;2023-03-26T02:12:13;99122.78;;;6.65;100.00
60489;BME280;46331;49.252;8.904;2023-03-26T02:12:54;99117.19;;;6.61;99.26
60489;BME280;46331;49.252;8.904;2023-03-26T02:13:36;99118.44;;;6.59;98.90
60489;BME280;46331;49.252;8.904;2023-03-26T02:14:17;99119.47;;;6.58;99.53
60489;BME280;46331;49.252;8.904;2023-03-26T02:14:58;99120.25;;;6.58;99.99
60489;BME280;46331;49.252;8.904;2023-03-26T02:15:40;99115.69;;;6.54;99.82
60489;BME280;46331;49.252;8.904;2023-03-26T02:16:21;99112.81;;;6.55;100.00
60489;BME280;46331;49.252;8.904;2023-03-26T02:17:01;99120.94;;;6.54;100.00
60489;BME280;46331;49.252;8.904;2023-03-26T02:17:42;99107.44;;;6.50;99.86
60489;BME280;46331;49.252;8.904;2023-03-26T02:18:23;99109.25;;;6.50;100.00
60489;BME280;46331;49.252;8.904;2023-03-26T02:19:03;99108.91;;;6.46;100.00
60489;BME280;46331;49.252;8.904;2023-03-26T02:19:44;99104.88;;;6.43;100.00
60489;BME280;46331;49.252;8.904;2023-03-26T02:20:25;99096.41;;;6.41;100.00
60489;BME280;46331;49.252;8.904;2023-03-26T02:21:27;99095.00;;;6.39;100.00
60489;BME280;46331;49.252;8.904;2023-03-26T02:22:09;99096.84;;;6.38;100.00
60489;BME280;46331;49.252;8.904;2023-03-26T02:22:51;99094.22;;;6.38;100.00
60489;BME280;46331;49.252;8.904;2023-03-26T02:23:32;99095.84;;;6.39;100.00
60489;BME280;46331;49.252;8.904;2023-03-26T02:24:18;99101.31;;;6.38;100.00
60489;BME280;46331;49.252;8.904;2023-03-26T02:24:59;99091.25;;;6.35;100.00
60489;BME280;46331;49.252;8.904;2023-03-26T02:25:40;99091.13;;;6.41;100.00
60489;BME280;46331;49.252;8.904;2023-03-26T02:26:23;99083.47;;;6.40;100.00
60489;BME280;46331;49.252;8.904;2023-03-26T02:27:12;99081.41;;;6.42;100.00
60489;BME280;46331;49.252;8.904;2023-03-26T02:27:53;99077.97;;;6.41;100.00
60489;BME280;46331;49.252;8.904;2023-03-26T02:28:35;99083.91;;;6.37;100.00
60489;BME280;46331;49.252;8.904;2023-03-26T02:29:17;99074.84;;;6.33;100.00
60489;BME280;46331;49.252;8.904;2023-03-26T02:29:58;99075.06;;;6.31;99.97
60489;BME280;46331;49.252;8.904;2023-03-26T02:30:39;99080.13;;;6.33;99.77
60489;BME280;46331;49.252;8.904;2023-03-26T02:31:20;99076.13;;;6.30;100.00
60489;BME280;46331;49.252;8.904;2023-03-26T02:32:01;99075.63;;;6.21;100.00
60489;BME280;46331;49.252;8.904;2023-03-26T02:32:44;99078.34;;;6.15;100.00
60489;BME280;46331;49.252;8.904;2023-03-26T02:33:25;99072.75;;;6.23;100.00
60489;BME280;46331;49.252;8.904;2023-03-26T02:34:05;99071.75;;;6.24;100.00
60489;BME280;46331;49.252;8.904;2023-03-26T02:34:48;99079.19;;;6.27;100.00
60489;BME280;46331;49.252;8.904;2023-03-26T02:35:30;99074.94;;;6.26;100.00
60489;BME280;46331;49.252;8.904;2023-03-26T02:36:13;99076.78;;;6.25;100.00
60489;BME280;46331;49.252;8.904;2023-03-26T02:36:57;99075.97;;;6.25;100.00
60489;BME280;46331;49.252;8.904;2023-03-26T02:37:39;99080.09;;;6.21;100.00
60489;BME280;46331;49.252;8.904;2023-03-26T02:38:28;99071.81;;;6.17;100.00
60489;BME280;46331;49.252;8.904;2023-03-26T02:39:10;99078.59;;;6.13;100.00
60489;BME280;46331;49.252;8.904;2023-03-26T02:39:51;99070.09;;;6.11;100.00
60489;BME280;46331;49.252;8.904;2023-03-26T02:40:40;99066.88;;;6.09;100.00
60489;BME280;46331;49.252;8.904;2023-03-26T02:41:21;99067.34;;;6.06;100.00
60489;BME280;46331;49.252;8.904;2023-03-26T02:42:09;99066.53;;;6.05;100.00
60489;BME280;46331;49.252;8.904;2023-03-26T02:42:57;99062.28;;;6.04;100.00
60489;BME280;46331;49.252;8.904;2023-03-26T02:43:38;99068.34;;;6.05;100.00
60489;BME280;46331;49.252;8.904;2023-03-26T02:44:21;99062.28;;;6.04;100.00
60489;BME280;46331;49.252;8.904;2023-03-26T02:45:14;99061.84;;;6.07;100.00
60489;BME280;46331;49.252;8.904;2023-03-26T02:46:13;99058.75;;;6.11;100.00
60489;BME280;46331;49.252;8.904;2023-03-26T02:47:12;99049.84;;;6.12;100.00
60489;BME280;46331;49.252;8.904;2023-03-26T02:47:56;99056.69;;;6.13;100.00
60489;BME280;46331;49.252;8.904;2023-03-26T02:48:54;99058.31;;;6.14;100.00
60489;BME280;46331;49.252;8.904;2023-03-26T02:49:38;99046.44;;;6.23;100.00
60489;BME280;46331;49.252;8.904;2023-03-26T02:50:19;99053.66;;;6.28;100.00
60489;BME280;46331;49.252;8.904;2023-03-26T02:51:17;99049.34;;;6.33;100.00
60489;BME280;46331;49.252;8.904;2023-03-26T02:52:17;99052.31;;;6.37;100.00
60489;BME280;46331;49.252;8.904;2023-03-26T02:52:59;99054.72;;;6.38;100.00
60489;BME280;46331;49.252;8.904;2023-03-26T02:53:42;99046.38;;;6.41;100.00
60489;BME280;46331;49.252;8.904;2023-03-26T02:54:41;99044.28;;;6.43;100.00
60489;BME280;46331;49.252;8.904;2023-03-26T02:55:31;99047.97;;;6.42;100.00
60489;BME280;46331;49.252;8.904;2023-03-26T02:56:14;99048.09;;;6.48;100.00
60489;BME280;46331;49.252;8.904;2023-03-26T02:57:05;99042.03;;;6.47;100.00
60489;BME280;46331;49.252;8.904;2023-03-26T02:58:05;99039.75;;;6.51;100.00
60489;BME280;46331;49.252;8.904;2023-03-26T02:58:50;99046.84;;;6.50;100.00
60489;BME280;46331;49.252;8.904;2023-03-26T02:59:30;99043.38;;;6.50;100.00
60489;BME280;46331;49.252;8.904;2023-03-26T03:00:30;99029.44;;;6.49;100.00
60489;BME280;46331;49.252;8.904;2023-03-26T03:01:26;99028.63;;;6.49;100.00
60489;BME280;46331;49.252;8.904;2023-03-26T03:02:10;99025.78;;;6.50;100.00
60489;BME280;46331;49.252;8.904;2023-03-26T03:02:53;99028.63;;;6.49;100.00
60489;BME280;46331;49.252;8.904;2023-03-26T03:03:36;99028.03;;;6.47;100.00
60489;BME280;46331;49.252;8.904;2023-03-26T03:04:33;99023.91;;;6.39;100.00
60489;BME280;46331;49.252;8.904;2023-03-26T03:05:14;99023.56;;;6.35;100.00
60489;BME280;46331;49.252;8.904;2023-03-26T03:05:55;99025.63;;;6.33;100.00
60489;BME280;46331;49.252;8.904;2023-03-26T03:06:43;99024.59;;;6.34;100.00
60489;BME280;46331;49.252;8.904;2023-03-26T03:07:26;99027.22;;;6.34;100.00
60489;BME280;46331;49.252;8.904;2023-03-26T03:08:08;99025.84;;;6.32;100.00
60489;BME280;46331;49.252;8.904;2023-03-26T03:08:52;99026.88;;;6.31;100.00
60489;BME280;46331;49.252;8.904;2023-03-26T03:09:33;99024.13;;;6.25;100.00
60489;BME280;46331;49.252;8.904;2023-03-26T03:10:37;99021.13;;;6.22;100.00
60489;BME280;46331;49.252;8.904;2023-03-26T03:11:23;99027.88;;;6.18;100.00
60489;BME280;46331;49.252;8.904;2023-03-26T03:12:07;99025.72;;;6.26;100.00
60489;BME280;46331;49.252;8.904;2023-03-26T03:12:48;99028.13;;;6.28;100.00
60489;BME280;46331;49.252;8.904;2023-03-26T03:13:28;99024.69;;;6.28;100.00
60489;BME280;46331;49.252;8.904;2023-03-26T03:14:09;99025.50;;;6.28;100.00
60489;BME280;46331;49.252;8.904;2023-03-26T03:14:50;99031.59;;;6.29;100.00
60489;BME280;46331;49.252;8.904;2023-03-26T03:15:30;99019.31;;;6.22;100.00
60489;BME280;46331;49.252;8.904;2023-03-26T03:16:11;99022.75;;;6.23;100.00
60489;BME280;46331;49.252;8.904;2023-03-26T03:16:51;99026.63;;;6.20;100.00
60489;BME280;46331;49.252;8.904;2023-03-26T03:17:37;99023.41;;;6.18;100.00
60489;BME280;46331;49.252;8.904;2023-03-26T03:18:17;99025.81;;;6.20;100.00
60489;BME280;46331;49.252;8.904;2023-03-26T03:18:58;99027.44;;;6.21;100.00
60489;BME280;46331;49.252;8.904;2023-03-26T03:19:50;99017.94;;;6.20;100.00
60489;BME280;46331;49.252;8.904;2023-03-26T03:20:31;99020.34;;;6.21;100.00
60489;BME280;46331;49.252;8.904;2023-03-26T03:21:14;99024.34;;;6.24;100.00
60489;BME280;46331;49.252;8.904;2023-03-26T03:21:55;99021.34;;;6.20;100.00
60489;BME280;46331;49.252;8.904;2023-03-26T03:22:36;99025.03;;;6.31;100.00
60489;BME280;46331;49.252;8.904;2023-03-26T03:23:17;99026.44;;;6.34;100.00
60489;BME280;46331;49.252;8.904;2023-03-26T03:23:57;99018.31;;;6.35;100.00
60489;BME280;46331;49.252;8.904;2023-03-26T03:24:39;99012.81;;;6.37;100.00
60489;BME280;46331;49.252;8.904;2023-03-26T03:25:19;99016.22;;;6.37;100.00
60489;BME280;46331;49.252;8.904;2023-03-26T03:26:01;99019.47;;;6.39;100.00
60489;BME280;46331;49.252;8.904;2023-03-26T03:26:43;99017.63;;;6.40;100.00
60489;BME280;46331;49.252;8.904;2023-03-26T03:27:57;99022.22;;;6.44;100.00
60489;BME280;46331;49.252;8.904;2023-03-26T03:28:38;99017.41;;;6.41;100.00
60489;BME280;46331;49.252;8.904;2023-03-26T03:29:18;99013.16;;;6.40;100.00
60489;BME280;46331;49.252;8.904;2023-03-26T03:29:59;99009.94;;;6.38;99.99
60489;BME280;46331;49.252;8.904;2023-03-26T03:30:58;99018.56;;;6.46;99.97
60489;BME280;46331;49.252;8.904;2023-03-26T03:31:44;99011.34;;;6.41;99.95
60489;BME280;46331;49.252;8.904;2023-03-26T03:32:36;99010.28;;;6.42;100.00
60489;BME280;46331;49.252;8.904;2023-03-26T03:33:21;99011.91;;;6.43;100.00
60489;BME280;46331;49.252;8.904;2023-03-26T03:34:02;99013.50;;;6.44;100.00
60489;BME280;46331;49.252;8.904;2023-03-26T03:34:46;99009.03;;;6.44;100.00
60489;BME280;46331;49.252;8.904;2023-03-26T03:35:29;99013.28;;;6.46;100.00
60489;BME280;46331;49.252;8.904;2023-03-26T03:36:13;99012.00;;;6.48;100.00
60489;BME280;46331;49.252;8.904;2023-03-26T03:36:58;99003.53;;;6.46;99.98
60489;BME280;46331;49.252;8.904;2023-03-26T03:37:48;99005.16;;;6.47;100.00
60489;BME280;46331;49.252;8.904;2023-03-26T03:38:29;99003.53;;;6.46;100.00
60489;BME280;46331;49.252;8.904;2023-03-26T03:39:09;99000.69;;;6.48;100.00
60489;BME280;46331;49.252;8.904;2023-03-26T03:39:51;99006.97;;;6.47;99.63
60489;BME280;46331;49.252;8.904;2023-03-26T03:40:34;98995.88;;;6.44;99.52
60489;BME280;46331;49.252;8.904;2023-03-26T03:41:15;98998.50;;;6.44;100.00
60489;BME280;46331;49.252;8.904;2023-03-26T03:41:58;99001.69;;;6.47;99.88
60489;BME280;46331;49.252;8.904;2023-03-26T03:42:38;98996.66;;;6.45;99.83
60489;BME280;46331;49.252;8.904;2023-03-26T03:43:20;98994.84;;;6.46;99.93
60489;BME280;46331;49.252;8.904;2023-03-26T03:44:16;98994.63;;;6.47;100.00
60489;BME280;46331;49.252;8.904;2023-03-26T03:44:57;98999.66;;;6.49;99.54
60489;BME280;46331;49.252;8.904;2023-03-26T03:46:10;98992.31;;;6.51;100.00
60489;BME280;46331;49.252;8.904;2023-03-26T03:46:56;98993.13;;;6.51;100.00
60489;BME280;46331;49.252;8.904;2023-03-26T03:47:37;98992.88;;;6.53;100.00
60489;BME280;46331;49.252;8.904;2023-03-26T03:48:18;98984.75;;;6.54;100.00
60489;BME280;46331;49.252;8.904;2023-03-26T03:49:01;98992.19;;;6.57;100.00
60489;BME280;46331;49.252;8.904;2023-03-26T03:49:46;98989.09;;;6.60;100.00
60489;BME280;46331;49.252;8.904;2023-03-26T03:50:27;98983.63;;;6.62;100.00
60489;BME280;46331;49.252;8.904;2023-03-26T03:51:24;98988.41;;;6.65;100.00
60489;BME280;46331;49.252;8.904;2023-03-26T03:52:13;98979.72;;;6.65;100.00
60489;BME280;46331;49.252;8.904;2023-03-26T03:52:56;98976.53;;;6.62;99.93
60489;BME280;46331;49.252;8.904;2023-03-26T03:53:41;98974.91;;;6.61;99.56
60489;BME280;46331;49.252;8.904;2023-03-26T03:54:26;98970.22;;;6.63;100.00
60489;BME280;46331;49.252;8.904;2023-03-26T03:55:19;98972.06;;;6.63;100.00
60489;BME280;46331;49.252;8.904;2023-03-26T03:56:05;98970.44;;;6.62;99.90
60489;BME280;46331;49.252;8.904;2023-03-26T03:57:22;98964.16;;;6.63;100.00
60489;BME280;46331;49.252;8.904;2023-03-26T03:58:10;98961.50;;;6.63;99.36
60489;BME280;46331;49.252;8.904;2023-03-26T03:58:54;98961.50;;;6.63;99.47
60489;BME280;46331;49.252;8.904;2023-03-26T03:59:43;98962.75;;;6.60;100.00
60489;BME280;46331;49.252;8.904;2023-03-26T04:00:24;98962.75;;;6.60;100.00
60489;BME280;46331;49.252;8.904;2023-03-26T04:01:25;98961.28;;;6.53;100.00
60489;BME280;46331;49.252;8.904;2023-03-26T04:02:14;98967.69;;;6.57;100.00
60489;BME280;46331;49.252;8.904;2023-03-26T04:03:09;98961.28;;;6.53;99.91
60489;BME280;46331;49.252;8.904;2023-03-26T04:03:53;98957.97;;;6.57;100.00
60489;BME280;46331;49.252;8.904;2023-03-26T04:04:37;98956.72;;;6.60;100.00
60489;BME280;46331;49.252;8.904;2023-03-26T04:05:22;98965.63;;;6.59;100.00
60489;BME280;46331;49.252;8.904;2023-03-26T04:06:07;98954.31;;;6.58;100.00
60489;BME280;46331;49.252;8.904;2023-03-26T04:06:51;98966.44;;;6.59;100.00
60489;BME280;46331;49.252;8.904;2023-03-26T04:07:32;98949.03;;;6.58;100.00
60489;BME280;46331;49.252;8.904;2023-03-26T04:08:18;98952.81;;;6.62;100.00
60489;BME280;46331;49.252;8.904;2023-03-26T04:09:02;98946.28;;;6.53;100.00
60489;BME280;46331;49.252;8.904;2023-03-26T04:09:43;98955.44;;;6.62;100.00
60489;BME280;46331;49.252;8.904;2023-03-26T04:10:29;98949.72;;;6.66;100.00
60489;BME280;46331;49.252;8.904;2023-03-26T04:11:25;98948.44;;;6.68;100.00
60489;BME280;46331;49.252;8.904;2023-03-26T04:12:27;98944.22;;;6.67;100.00
60489;BME280;46331;49.252;8.904;2023-03-26T04:13:13;98944.22;;;6.67;100.00
60489;BME280;46331;49.252;8.904;2023-03-26T04:14:23;98941.59;;;6.67;100.00
60489;BME280;46331;49.252;8.904;2023-03-26T04:15:13;98937.34;;;6.66;100.00
60489;BME280;46331;49.252;8.904;2023-03-26T04:15:54;98938.38;;;6.65;100.00
60489;BME280;46331;49.252;8.904;2023-03-26T04:16:36;98935.50;;;6.67;100.00
60489;BME280;46331;49.252;8.904;2023-03-26T04:17:16;98940.78;;;6.67;100.00
60489;BME280;46331;49.252;8.904;2023-03-26T04:17:59;98943.63;;;6.65;100.00
60489;BME280;46331;49.252;8.904;2023-03-26T04:18:39;98936.09;;;6.69;100.00
60489;BME280;46331;49.252;8.904;2023-03-26T04:19:26;98936.88;;;6.69;100.00